Time;durP1;ratioP1;P1;durP2;ratioP2;P2;SDS_P1;SDS_P2;PMS_P1;PMS_P2;Temp;Humidity;BMP_temperature;BMP_pressure;BME280_temperature;BME280_humidity;BME280_pressure;Samples;Min_cycle;Max_cycle;Signal;HPM_P1;HPM_P2
2022/01/21 00:01:30;;;;;;;12.33;2.20;;;;;;;0.63;82.01;103314.31;5090557;28;20024;-79
2022/01/21 00:03:56;;;;;;;9.83;1.63;;;;;;;0.63;82.52;103322.91;5092816;28;20036;-79
2022/01/21 00:06:22;;;;;;;12.40;2.93;;;;;;;0.67;81.95;103324.84;5091481;28;20034;-79
2022/01/21 00:08:48;;;;;;;15.83;1.87;;;;;;;0.69;81.90;103325.78;5090930;28;20028;-79
2022/01/21 00:11:15;;;;;;;8.83;1.47;;;;;;;0.71;82.37;103313.94;5092499;28;20080;-79
2022/01/21 00:13:41;;;;;;;8.67;1.60;;;;;;;0.71;82.39;103329.31;5091076;28;20131;-79
2022/01/21 00:16:16;;;;;;;7.33;1.73;;;;;;;0.73;81.88;103321.75;5090320;28;20027;-81
2022/01/21 00:18:54;;;;;;;10.80;2.40;;;;;;;0.71;81.96;103313.94;5091038;28;20052;-79
2022/01/21 00:32:18;;;;;;;9.27;2.13;;;;;;;0.64;82.05;103309.31;5091932;28;20276;-79
2022/01/21 00:34:43;;;;;;;12.67;2.63;;;;;;;0.62;81.90;103310.91;5089975;28;20192;-79
2022/01/21 00:37:08;;;;;;;11.77;2.63;;;;;;;0.59;81.96;103318.41;5089397;28;20069;-79
2022/01/21 00:39:35;;;;;;;10.43;2.33;;;;;;;0.57;81.57;103317.44;5091362;28;20499;-79
2022/01/21 00:42:33;;;;;;;10.77;2.70;;;;;;;0.53;82.12;103312.94;5092100;28;20016;-79
2022/01/21 00:44:59;;;;;;;14.57;2.97;;;;;;;0.52;81.81;103313.72;5092351;28;20046;-79
2022/01/21 00:47:26;;;;;;;10.53;2.20;;;;;;;0.47;82.04;103321.16;5094989;28;20070;-79
2022/01/21 00:49:51;;;;;;;13.47;2.47;;;;;;;0.47;81.90;103322.84;5095335;28;20024;-79
2022/01/21 00:52:16;;;;;;;14.23;2.40;;;;;;;0.43;81.88;103320.09;5076230;28;20464;-79
2022/01/21 00:54:42;;;;;;;7.83;2.30;;;;;;;0.40;81.76;103303.69;5092945;28;20066;-79
2022/01/21 00:57:07;;;;;;;13.20;2.50;;;;;;;0.37;81.92;103317.19;5094163;28;20431;-79
2022/01/21 00:59:33;;;;;;;18.40;3.00;;;;;;;0.34;82.24;103318.69;5094552;28;20024;-79
2022/01/21 01:01:58;;;;;;;8.43;2.03;;;;;;;0.32;81.84;103321.19;5094142;28;20024;-79
2022/01/21 01:04:24;;;;;;;16.07;2.90;;;;;;;0.29;82.06;103324.44;5093803;28;20076;-79
2022/01/21 01:06:49;;;;;;;14.23;2.60;;;;;;;0.28;82.29;103326.91;5076658;28;20476;-80
2022/01/21 01:09:14;;;;;;;14.27;2.63;;;;;;;0.28;82.31;103326.91;5093330;28;20055;-79
2022/01/21 01:11:52;;;;;;;13.43;2.67;;;;;;;0.27;82.48;103325.16;5094433;28;20043;-79
2022/01/21 01:19:57;;;;;;;13.97;2.57;;;;;;;0.26;82.63;103323.38;5092698;28;20408;-79
2022/01/21 01:23:23;;;;;;;13.03;2.47;;;;;;;0.25;82.55;103319.97;5077004;28;20662;-79
2022/01/21 01:27:59;;;;;;;9.27;2.17;;;;;;;0.24;82.26;103307.06;5093569;28;20043;-79
2022/01/21 01:30:28;;;;;;;9.40;2.20;;;;;;;0.22;82.31;103298.41;5094870;28;20039;-79
2022/01/21 01:32:59;;;;;;;13.33;2.63;;;;;;;0.21;82.28;103301.75;5093619;28;20016;-79
2022/01/21 01:35:27;;;;;;;20.20;2.53;;;;;;;0.20;82.74;103292.31;5092925;28;20161;-79
2022/01/21 01:40:30;;;;;;;11.82;2.25;;;;;;;0.18;82.89;103293.91;5092834;28;20042;-79
2022/01/21 01:49:23;;;;;;;9.17;2.00;;;;;;;0.15;82.64;103292.06;5095950;28;20030;-79
2022/01/21 01:51:18;;;;;;;6.23;1.80;;;;;;;0.08;82.41;103298.50;5093612;28;20198;-79
2022/01/21 01:53:51;;;;;;;12.03;2.20;;;;;;;0.06;82.73;103302.66;5094052;28;20433;-79
2022/01/21 01:56:25;;;;;;;8.67;1.80;;;;;;;0.05;83.09;103302.56;5092300;28;20066;-79
2022/01/21 01:58:51;;;;;;;10.77;2.00;;;;;;;0.02;83.31;103300.69;5091205;28;20494;-79
2022/01/21 02:01:16;;;;;;;8.93;2.00;;;;;;;0.01;82.91;103300.63;5092293;28;20036;-79
2022/01/21 02:03:41;;;;;;;11.10;1.70;;;;;;;-0.02;83.23;103314.13;5090011;28;20043;-79
2022/01/21 02:06:07;;;;;;;8.10;1.80;;;;;;;-0.04;82.80;103306.34;5092118;28;20024;-79
2022/01/21 02:08:33;;;;;;;11.67;2.10;;;;;;;-0.09;83.05;103309.44;5089772;28;20030;-79
2022/01/21 02:10:58;;;;;;;8.40;2.03;;;;;;;-0.11;83.15;103314.47;5089869;28;20443;-79
2022/01/21 02:13:31;;;;;;;9.37;1.90;;;;;;;-0.11;83.35;103305.91;5089372;28;20128;-79
2022/01/21 02:16:32;;;;;;;11.40;1.83;;;;;;;-0.13;83.57;103302.38;5089779;28;20040;-79
2022/01/21 02:21:46;;;;;;;13.20;1.83;;;;;;;-0.21;83.65;103300.25;5089953;28;20074;-79
2022/01/21 02:24:16;;;;;;;15.20;2.63;;;;;;;-0.18;83.64;103302.09;5070990;28;20024;-79
2022/01/21 02:26:44;;;;;;;11.57;1.93;;;;;;;-0.22;83.43;103303.59;5089350;28;20027;-79
2022/01/21 02:29:10;;;;;;;10.33;1.80;;;;;;;-0.21;83.86;103310.50;5089616;28;20024;-79
2022/01/21 02:31:38;;;;;;;13.30;2.07;;;;;;;-0.20;83.28;103308.81;5090026;28;20081;-79
2022/01/21 02:34:06;;;;;;;9.90;1.70;;;;;;;-0.20;83.51;103302.03;5088582;28;20103;-79
2022/01/21 02:36:31;;;;;;;5.33;1.60;;;;;;;-0.20;83.32;103312.25;5090053;28;20031;-79
2022/01/21 02:38:57;;;;;;;11.80;1.70;;;;;;;-0.22;83.55;103308.72;5089980;28;20028;-79
2022/01/21 02:41:23;;;;;;;11.63;1.60;;;;;;;-0.21;83.60;103310.50;5091386;28;20369;-79
2022/01/21 02:43:49;;;;;;;7.33;1.50;;;;;;;-0.21;83.81;103302.81;5088980;28;20032;-79
2022/01/21 02:46:16;;;;;;;7.60;1.53;;;;;;;-0.21;83.47;103300.25;5090201;28;20024;-79
2022/01/21 02:48:41;;;;;;;7.93;1.73;;;;;;;-0.22;83.40;103289.91;5093263;28;20043;-79
2022/01/21 02:51:10;;;;;;;8.77;1.40;;;;;;;-0.20;83.68;103291.78;5092720;28;20062;-79
2022/01/21 02:53:41;;;;;;;11.80;1.73;;;;;;;-0.21;83.65;103299.34;5089923;28;20123;-79
2022/01/21 02:56:09;;;;;;;8.37;1.60;;;;;;;-0.24;83.21;103294.97;5091191;28;20020;-79
2022/01/21 02:58:35;;;;;;;5.70;1.57;;;;;;;-0.24;84.11;103305.19;5075143;28;20031;-79
2022/01/21 03:01:00;;;;;;;8.07;1.63;;;;;;;-0.21;83.81;103304.47;5090770;28;20020;-79
2022/01/21 03:03:25;;;;;;;7.57;1.47;;;;;;;-0.23;83.89;103309.50;5091812;28;20020;-79
2022/01/21 03:05:50;;;;;;;9.50;1.77;;;;;;;-0.23;83.61;103312.06;5089804;28;20028;-79
2022/01/21 03:08:16;;;;;;;11.07;1.57;;;;;;;-0.24;83.93;103317.97;5091014;28;20084;-79
2022/01/21 03:10:42;;;;;;;6.57;1.47;;;;;;;-0.24;83.78;103310.31;5089999;28;20027;-79
2022/01/21 03:13:07;;;;;;;10.70;1.30;;;;;;;-0.25;83.93;103316.22;5090117;28;20416;-79
2022/01/21 03:15:32;;;;;;;6.63;1.30;;;;;;;-0.27;84.02;103312.69;5087508;28;20099;-79
2022/01/21 03:17:57;;;;;;;10.40;1.80;;;;;;;-0.27;84.30;103314.38;5089161;28;20162;-79
2022/01/21 03:20:23;;;;;;;4.83;1.27;;;;;;;-0.28;84.07;103312.59;5090255;28;20044;-79
2022/01/21 03:22:48;;;;;;;7.80;1.60;;;;;;;-0.27;84.34;103322.03;5090913;28;20042;-80
2022/01/21 03:25:13;;;;;;;4.17;1.20;;;;;;;-0.29;84.38;103316.81;5093698;28;20515;-79
2022/01/21 03:27:39;;;;;;;5.73;1.47;;;;;;;-0.29;83.86;103318.50;5090213;28;20059;-79
2022/01/21 03:30:07;;;;;;;7.63;1.53;;;;;;;-0.29;84.20;103313.38;5090120;28;20123;-79
2022/01/21 03:32:33;;;;;;;12.07;1.70;;;;;;;-0.30;83.68;103315.06;5090886;28;20022;-79
2022/01/21 03:34:58;;;;;;;8.20;1.73;;;;;;;-0.32;84.10;103322.66;5091737;28;20027;-79
2022/01/21 03:37:23;;;;;;;7.37;1.77;;;;;;;-0.31;83.84;103320.97;5090334;28;20488;-79
2022/01/21 03:39:49;;;;;;;7.63;1.53;;;;;;;-0.32;83.69;103327.75;5091068;28;20024;-79
2022/01/21 03:42:14;;;;;;;5.37;1.60;;;;;;;-0.33;83.80;103326.00;5090858;28;20028;-79
2022/01/21 03:44:40;;;;;;;7.77;1.50;;;;;;;-0.33;84.09;103325.09;5091250;28;20496;-79
2022/01/21 03:47:05;;;;;;;9.20;1.40;;;;;;;-0.35;84.00;103331.81;5092892;28;20043;-79
2022/01/21 03:49:37;;;;;;;7.77;1.40;;;;;;;-0.37;84.04;103338.50;5090833;28;20502;-79
2022/01/21 03:52:04;;;;;;;10.73;1.40;;;;;;;-0.40;84.02;103328.97;5090020;28;20077;-79
2022/01/21 03:54:29;;;;;;;7.03;1.60;;;;;;;-0.42;84.33;103334.78;5092171;28;20047;-79
2022/01/21 03:56:55;;;;;;;5.70;1.33;;;;;;;-0.42;84.12;103334.78;5091169;28;20370;-79
2022/01/21 03:59:20;;;;;;;10.50;1.80;;;;;;;-0.43;84.27;103327.91;5091218;28;20253;-79
2022/01/21 04:01:45;;;;;;;8.50;1.47;;;;;;;-0.42;84.34;103338.22;5089948;28;20019;-79
2022/01/21 04:04:10;;;;;;;8.63;1.33;;;;;;;-0.43;84.25;103326.25;5092499;28;20024;-79
2022/01/21 04:06:36;;;;;;;7.67;1.60;;;;;;;-0.43;84.20;103333.03;5090809;28;20023;-79
2022/01/21 04:09:02;;;;;;;5.53;1.40;;;;;;;-0.43;84.36;103335.56;5092104;28;20036;-79
2022/01/21 04:11:27;;;;;;;7.93;1.20;;;;;;;-0.44;84.15;103331.25;5088290;28;20032;-79
2022/01/21 04:13:54;;;;;;;11.60;1.80;;;;;;;-0.44;83.89;103327.03;5091268;28;20099;-79
2022/01/21 04:16:19;;;;;;;78.27;19.90;;;;;;;-0.44;83.82;103315.91;5071633;28;20016;-79
2022/01/21 04:18:45;;;;;;;69.83;17.27;;;;;;;-0.44;84.35;103321.03;5093708;28;20491;-79
2022/01/21 04:21:10;;;;;;;21.27;6.90;;;;;;;-0.43;84.26;103310.00;5094750;28;20047;-79
2022/01/21 04:23:35;;;;;;;21.07;5.87;;;;;;;-0.41;84.14;103316.09;5095482;28;20028;-79
2022/01/21 04:26:00;;;;;;;20.43;3.23;;;;;;;-0.41;84.20;103318.66;5095967;28;20031;-79
2022/01/21 04:28:26;;;;;;;14.30;2.53;;;;;;;-0.40;84.11;103320.41;5094258;28;20447;-79
2022/01/21 04:30:51;;;;;;;7.97;2.40;;;;;;;-0.43;84.32;103313.47;5094812;28;20077;-79
2022/01/21 04:33:16;;;;;;;9.77;2.20;;;;;;;-0.46;83.86;103311.56;5094876;28;20020;-79
2022/01/21 04:35:42;;;;;;;7.37;1.63;;;;;;;-0.47;84.01;103312.38;5093921;28;20108;-79
2022/01/21 04:38:10;;;;;;;8.03;1.53;;;;;;;-0.48;84.46;103318.28;5094003;28;20028;-79
2022/01/21 04:40:44;;;;;;;8.20;1.70;;;;;;;-0.50;84.36;103321.53;5075557;28;20412;-79
2022/01/21 04:48:37;;;;;;;8.93;1.63;;;;;;;-0.54;84.41;103319.59;5095218;28;20039;-79
2022/01/21 04:53:38;;;;;;;6.30;1.70;;;;;;;-0.53;85.04;103321.34;5094099;28;20826;-79
2022/01/21 04:56:04;;;;;;;10.97;1.67;;;;;;;-0.56;85.23;103314.38;5092700;28;20063;-79
2022/01/21 04:58:30;;;;;;;6.47;1.33;;;;;;;-0.53;84.78;103317.13;5093916;28;20032;-79
2022/01/21 05:00:55;;;;;;;8.77;1.87;;;;;;;-0.55;85.28;103312.69;5095674;28;20020;-79
2022/01/21 05:03:21;;;;;;;6.33;1.40;;;;;;;-0.57;85.22;103302.41;5094587;28;20461;-79
2022/01/21 05:05:46;;;;;;;10.00;1.57;;;;;;;-0.58;85.35;103298.06;5093175;28;20491;-79
2022/01/21 05:08:22;;;;;;;7.83;1.50;;;;;;;-0.58;85.08;103303.19;5094409;28;20024;-79
2022/01/21 05:10:47;;;;;;;7.00;1.40;;;;;;;-0.59;85.89;103303.97;5093875;28;20019;-79
2022/01/21 05:13:16;;;;;;;8.60;1.37;;;;;;;-0.59;85.47;103309.09;5093605;28;20039;-79
2022/01/21 05:16:01;;;;;;;6.40;1.50;;;;;;;-0.58;85.49;103308.28;5093086;28;20441;-79
2022/01/21 05:18:27;;;;;;;7.63;1.47;;;;;;;-0.57;85.53;103309.16;5077863;28;20119;-79
2022/01/21 05:20:52;;;;;;;8.63;1.50;;;;;;;-0.57;86.40;103312.63;5092953;28;20103;-79
2022/01/21 05:23:18;;;;;;;7.90;1.60;;;;;;;-0.54;85.64;103317.94;5094096;28;20023;-79
2022/01/21 05:25:43;;;;;;;7.97;1.37;;;;;;;-0.54;86.17;103314.47;5092882;28;20024;-79
2022/01/21 05:28:08;;;;;;;6.57;1.67;;;;;;;-0.53;85.97;103313.69;5094437;28;20043;-79
2022/01/21 05:30:33;;;;;;;11.87;1.50;;;;;;;-0.53;86.49;103323.91;5092589;28;20036;-79
2022/01/21 05:32:59;;;;;;;7.37;1.50;;;;;;;-0.52;86.21;103321.47;5093197;28;20028;-79
2022/01/21 05:35:24;;;;;;;7.13;1.40;;;;;;;-0.53;86.52;103309.47;5092685;28;20035;-79
2022/01/21 05:37:50;;;;;;;6.43;1.50;;;;;;;-0.53;86.49;103306.91;5093367;28;20036;-79
2022/01/21 05:40:17;;;;;;;10.00;1.70;;;;;;;-0.52;86.39;103303.56;5093621;28;20103;-79
2022/01/21 05:42:42;;;;;;;8.80;1.27;;;;;;;-0.52;86.71;103307.78;5075277;28;20494;-79
2022/01/21 05:47:34;;;;;;;9.27;2.07;;;;;;;-0.52;86.54;103313.78;5093829;28;20093;-79
2022/01/21 05:49:59;;;;;;;8.37;1.80;;;;;;;-0.51;86.48;103314.66;5093308;28;20460;-79
2022/01/21 05:52:35;;;;;;;5.70;1.40;;;;;;;-0.51;86.35;103315.53;5094415;28;20470;-79
2022/01/21 05:55:01;;;;;;;5.73;1.40;;;;;;;-0.50;86.15;103316.44;5074228;28;20042;-79
2022/01/21 05:57:26;;;;;;;11.87;1.80;;;;;;;-0.49;86.62;103324.19;5092515;28;20016;-79
2022/01/21 05:59:51;;;;;;;8.10;1.67;;;;;;;-0.50;86.49;103330.06;5091845;28;20035;-79
2022/01/21 06:02:17;;;;;;;6.63;1.37;;;;;;;-0.50;86.13;103332.63;5092665;28;20084;-79
2022/01/21 06:04:46;;;;;;;9.20;1.70;;;;;;;-0.49;86.34;103334.41;5091839;28;20039;-79
2022/01/21 06:07:12;;;;;;;9.47;1.80;;;;;;;-0.49;85.95;103334.41;5075235;28;20011;-79
2022/01/21 06:09:37;;;;;;;5.90;1.40;;;;;;;-0.52;86.15;103333.34;5092148;28;20032;-79
2022/01/21 06:12:05;;;;;;;7.57;1.50;;;;;;;-0.53;86.65;103337.59;5093492;28;20050;-79
2022/01/21 06:14:30;;;;;;;8.37;1.93;;;;;;;-0.55;85.96;103334.06;5092499;28;20023;-79
2022/01/21 06:16:55;;;;;;;9.63;1.60;;;;;;;-0.54;86.27;103333.28;5092528;28;20035;-79
2022/01/21 06:19:21;;;;;;;7.00;1.70;;;;;;;-0.54;86.28;103340.94;5073380;28;20094;-79
2022/01/21 06:21:46;;;;;;;6.47;1.60;;;;;;;-0.54;86.83;103343.50;5092995;28;20121;-79
2022/01/21 06:24:11;;;;;;;6.63;1.60;;;;;;;-0.55;86.10;103343.38;5091236;28;20040;-79
2022/01/21 06:26:37;;;;;;;6.97;1.80;;;;;;;-0.56;86.19;103342.50;5091746;28;20053;-79
2022/01/21 06:29:03;;;;;;;4.87;1.43;;;;;;;-0.56;85.96;103342.50;5091435;28;20046;-79
2022/01/21 06:31:29;;;;;;;7.00;1.60;;;;;;;-0.56;86.66;103351.84;5092020;28;20027;-79
2022/01/21 06:33:54;;;;;;;9.50;2.00;;;;;;;-0.58;86.15;103351.75;5090607;28;20032;-79
2022/01/21 06:36:20;;;;;;;6.00;2.03;;;;;;;-0.54;86.31;103358.84;5091379;28;20475;-79
2022/01/21 06:38:45;;;;;;;9.77;2.20;;;;;;;-0.53;86.58;103363.16;5091739;28;20028;-81
2022/01/21 06:41:10;;;;;;;9.77;1.90;;;;;;;-0.46;86.31;103379.75;5090834;28;20508;-79
2022/01/21 06:43:35;;;;;;;16.37;1.77;;;;;;;-0.49;86.49;103383.00;5093319;28;20032;-79
2022/01/21 06:46:01;;;;;;;9.37;1.60;;;;;;;-0.48;87.10;103377.09;5092335;28;20028;-79
2022/01/21 06:48:26;;;;;;;5.33;1.40;;;;;;;-0.44;86.63;103372.16;5091200;28;20437;-79
2022/01/21 06:50:51;;;;;;;5.00;1.40;;;;;;;-0.42;87.03;103379.13;5091576;28;20024;-79
2022/01/21 06:53:17;;;;;;;5.57;1.33;;;;;;;-0.37;87.37;103375.19;5090451;28;20031;-79
2022/01/21 06:55:42;;;;;;;7.23;1.57;;;;;;;-0.33;87.18;103386.47;5091609;28;20038;-79
2022/01/21 06:58:07;;;;;;;6.90;1.60;;;;;;;-0.30;86.80;103381.56;5092095;28;20039;-79
2022/01/21 07:00:33;;;;;;;5.87;1.43;;;;;;;-0.26;87.09;103391.19;5090094;28;20036;-79
2022/01/21 07:02:58;;;;;;;5.97;1.43;;;;;;;-0.21;86.97;103386.34;5094830;28;20035;-79
2022/01/21 07:05:25;;;;;;;7.60;1.47;;;;;;;-0.18;87.06;103399.31;5092188;28;20125;-79
2022/01/21 07:07:51;;;;;;;10.33;1.83;;;;;;;-0.13;87.20;103394.47;5074314;28;20028;-79
2022/01/21 07:10:17;;;;;;;7.67;1.67;;;;;;;-0.08;87.46;103404.19;5092490;28;20039;-79
2022/01/21 07:12:44;;;;;;;7.27;1.60;;;;;;;-0.05;87.68;103394.16;5089259;28;20036;-79
2022/01/21 07:15:11;;;;;;;9.50;2.30;;;;;;;0.00;87.73;103391.88;5092448;28;20033;-79
2022/01/21 07:17:36;;;;;;;8.03;1.80;;;;;;;0.03;87.22;103397.16;5092021;28;20040;-78
2022/01/21 07:20:04;;;;;;;9.53;2.00;;;;;;;0.05;87.23;103395.56;5091237;28;20028;-79
2022/01/21 07:22:31;;;;;;;8.13;1.93;;;;;;;0.07;86.87;103399.13;5092025;28;20491;-79
2022/01/21 07:24:56;;;;;;;11.00;1.87;;;;;;;0.10;87.40;103409.53;5072270;28;20024;-79
2022/01/21 07:27:22;;;;;;;7.00;1.60;;;;;;;0.13;87.23;103409.72;5088803;28;20147;-79
2022/01/21 07:29:47;;;;;;;7.40;1.83;;;;;;;0.18;86.81;103406.53;5091053;28;20031;-79
2022/01/21 07:32:12;;;;;;;11.23;1.97;;;;;;;0.23;87.01;103417.94;5087698;28;20400;-79
2022/01/21 07:34:37;;;;;;;9.53;1.83;;;;;;;0.23;86.93;103423.97;5075677;28;20035;-79
2022/01/21 07:37:03;;;;;;;11.70;2.40;;;;;;;0.24;87.03;103428.28;5088660;28;20024;-79
2022/01/21 07:39:28;;;;;;;9.60;1.80;;;;;;;0.27;86.68;103433.56;5090045;28;20442;-79
2022/01/21 07:41:54;;;;;;;10.13;1.90;;;;;;;0.30;86.96;103427.75;5091942;28;20441;-79
2022/01/21 07:44:19;;;;;;;7.60;1.83;;;;;;;0.33;86.92;103415.13;5091564;28;20040;-79
2022/01/21 07:46:46;;;;;;;11.23;2.03;;;;;;;0.37;86.54;103417.06;5071795;28;20028;-79
2022/01/21 07:49:11;;;;;;;11.93;2.50;;;;;;;0.40;86.96;103407.00;5093703;28;20039;-79
2022/01/21 07:51:37;;;;;;;4.43;2.13;;;;;;;0.41;87.28;103405.34;5083444;28;20099;-79
2022/01/21 07:54:03;;;;;;;7.50;2.13;;;;;;;0.42;87.12;103412.22;5090296;28;20123;-79
2022/01/21 07:56:29;;;;;;;17.47;6.03;;;;;;;0.44;87.01;103408.94;5091556;28;20126;-79
2022/01/21 07:58:55;;;;;;;26.30;10.40;;;;;;;0.47;87.14;103395.44;5092967;28;20032;-79
2022/01/21 08:01:20;;;;;;;11.90;4.37;;;;;;;0.49;87.12;103388.72;5091181;28;20031;-79
2022/01/21 08:03:46;;;;;;;8.83;2.93;;;;;;;0.52;86.96;103382.88;5090317;28;20035;-79
2022/01/21 08:06:11;;;;;;;8.50;2.60;;;;;;;0.52;87.28;103383.78;5092773;28;20050;-79
2022/01/21 08:08:36;;;;;;;10.60;2.70;;;;;;;0.52;86.59;103383.78;5073273;28;20111;-79
2022/01/21 08:11:01;;;;;;;6.43;2.87;;;;;;;0.51;87.29;103378.59;5092844;28;20084;-79
2022/01/21 08:13:28;;;;;;;12.70;3.37;;;;;;;0.51;87.20;103386.25;5091764;28;20051;-78
2022/01/21 08:15:55;;;;;;;10.60;3.70;;;;;;;0.51;87.21;103386.25;5091745;28;20028;-79
2022/01/21 08:18:20;;;;;;;9.27;3.27;;;;;;;0.52;86.86;103385.44;5091752;28;20023;-79
2022/01/21 08:20:45;;;;;;;9.47;2.97;;;;;;;0.53;87.23;103374.41;5091185;28;20024;-78
2022/01/21 08:23:11;;;;;;;9.20;3.70;;;;;;;0.55;87.15;103378.84;5071478;28;20055;-79
2022/01/21 08:25:37;;;;;;;10.00;2.90;;;;;;;0.56;87.05;103385.72;5088522;28;20032;-79
2022/01/21 08:28:03;;;;;;;12.03;3.80;;;;;;;0.57;87.26;103378.91;5090823;28;20576;-79
2022/01/21 08:30:28;;;;;;;9.37;3.70;;;;;;;0.59;87.45;103387.56;5090207;28;20548;-79
2022/01/21 08:32:53;;;;;;;9.73;4.10;;;;;;;0.60;86.94;103387.63;5088391;28;20038;-79
2022/01/21 08:35:19;;;;;;;7.67;4.20;;;;;;;0.63;86.95;103391.19;5090369;28;20024;-79
2022/01/21 08:37:44;;;;;;;10.33;4.13;;;;;;;0.64;86.85;103398.97;5088177;28;20516;-78
2022/01/21 08:40:10;;;;;;;7.57;3.63;;;;;;;0.64;87.23;103401.53;5089527;28;20033;-79
2022/01/21 08:42:36;;;;;;;11.00;3.60;;;;;;;0.66;86.96;103397.38;5090445;28;20032;-79
2022/01/21 08:45:02;;;;;;;12.23;3.53;;;;;;;0.67;86.84;103398.25;5088807;28;20078;-81
2022/01/21 08:47:27;;;;;;;7.33;3.30;;;;;;;0.66;87.07;103394.81;5090617;28;20077;-79
2022/01/21 08:49:53;;;;;;;9.17;3.57;;;;;;;0.67;86.68;103401.72;5089863;28;20035;-79
2022/01/21 08:52:20;;;;;;;7.30;3.43;;;;;;;0.67;86.59;103399.16;5090208;28;20012;-79
2022/01/21 08:54:47;;;;;;;7.13;3.43;;;;;;;0.68;86.36;103406.03;5070268;28;20333;-79
2022/01/21 08:57:13;;;;;;;13.00;5.43;;;;;;;0.70;86.41;103406.13;5089852;28;20027;-79
2022/01/21 08:59:39;;;;;;;14.60;5.67;;;;;;;0.69;86.92;103406.91;5087451;28;20422;-79
2022/01/21 09:02:04;;;;;;;16.07;6.17;;;;;;;0.67;86.92;103399.16;5090419;28;20028;-79
2022/01/21 09:04:29;;;;;;;14.80;6.43;;;;;;;0.69;86.97;103388.97;5089843;28;20106;-79
2022/01/21 09:06:56;;;;;;;14.87;4.63;;;;;;;0.69;86.84;103377.03;5093327;28;20096;-78
2022/01/21 09:09:23;;;;;;;13.43;4.10;;;;;;;0.71;86.84;103364.31;5093835;28;20610;-79
2022/01/21 09:11:48;;;;;;;9.37;3.60;;;;;;;0.72;87.06;103372.09;5092304;28;20039;-79
2022/01/21 09:14:13;;;;;;;9.10;3.97;;;;;;;0.73;87.14;103368.72;5090238;28;20049;-79
2022/01/21 09:16:42;;;;;;;10.50;4.03;;;;;;;0.75;87.14;103376.53;5093329;28;20031;-78
2022/01/21 09:19:07;;;;;;;8.13;3.80;;;;;;;0.78;86.96;103376.66;5090387;28;20396;-78
2022/01/21 09:21:36;;;;;;;11.53;3.97;;;;;;;0.82;87.01;103375.19;5091829;28;20039;-78
2022/01/21 09:24:03;;;;;;;7.60;3.43;;;;;;;0.86;87.06;103377.09;5089730;28;20025;-79
2022/01/21 09:26:28;;;;;;;11.33;3.70;;;;;;;0.90;87.01;103377.38;5089643;28;20545;-78
2022/01/21 09:28:54;;;;;;;9.07;3.70;;;;;;;0.95;86.92;103385.31;5086099;28;20028;-79
2022/01/21 09:31:20;;;;;;;8.33;3.73;;;;;;;0.97;87.10;103388.84;5087190;28;20424;-80
2022/01/21 09:33:48;;;;;;;11.37;4.07;;;;;;;1.00;86.95;103383.00;5086715;28;20028;-79
2022/01/21 09:36:13;;;;;;;9.73;3.60;;;;;;;1.04;86.81;103390.94;5086257;28;20175;-79
2022/01/21 09:38:39;;;;;;;7.17;3.77;;;;;;;1.10;87.20;103394.63;5086654;28;20491;-79
2022/01/21 09:41:06;;;;;;;12.10;4.20;;;;;;;1.14;86.92;103404.28;5088020;28;20502;-79
2022/01/21 09:43:38;;;;;;;11.70;3.60;;;;;;;1.17;87.24;103387.38;5084441;28;20489;-79
2022/01/21 09:46:07;;;;;;;10.25;3.80;;;;;;;1.24;87.11;103388.56;5068867;28;20027;-79
2022/01/21 09:48:37;;;;;;;15.60;3.30;;;;;;;1.30;87.02;103395.72;5087952;28;20034;-79
2022/01/21 09:51:03;;;;;;;9.23;3.57;;;;;;;1.34;87.24;103392.53;5066131;28;20035;-79
2022/01/21 09:53:31;;;;;;;10.57;4.20;;;;;;;1.38;86.91;103391.00;5086108;28;20020;-79
2022/01/21 09:56:01;;;;;;;7.47;3.17;;;;;;;1.43;87.24;103408.41;5086046;28;20028;-79
2022/01/21 09:58:31;;;;;;;9.00;3.20;;;;;;;1.48;87.13;103409.53;5064613;28;20028;-80
2022/01/21 10:00:58;;;;;;;7.20;2.93;;;;;;;1.54;86.98;103408.97;5084785;28;20608;-79
2022/01/21 10:03:24;;;;;;;10.40;3.30;;;;;;;1.59;87.02;103416.94;5085155;28;20103;-79
2022/01/21 10:05:51;;;;;;;7.30;3.17;;;;;;;1.62;86.97;103415.41;5083432;28;20565;-79
2022/01/21 10:08:19;;;;;;;9.43;3.60;;;;;;;1.68;87.06;103425.09;5068824;28;20089;-79
2022/01/21 10:10:45;;;;;;;10.07;2.80;;;;;;;1.71;87.09;103422.72;5085017;28;20032;-79
2022/01/21 10:13:14;;;;;;;9.13;3.20;;;;;;;1.78;86.85;103434.19;5087426;28;20361;-80
2022/01/21 10:15:40;;;;;;;9.37;2.97;;;;;;;1.83;87.28;103437.88;5100128;27;20028;-79
2022/01/21 10:18:10;;;;;;;8.50;2.73;;;;;;;1.87;86.81;103439.81;5087294;28;20024;-79
2022/01/21 10:20:35;;;;;;;9.97;2.93;;;;;;;1.92;86.99;103446.03;5086338;28;20111;-80
2022/01/21 10:23:09;;;;;;;9.73;3.30;;;;;;;2.00;87.04;103440.44;5086051;28;20036;-79
2022/01/21 10:25:40;;;;;;;11.63;2.90;;;;;;;2.03;87.21;103435.47;5085908;28;20380;-79
2022/01/21 10:28:14;;;;;;;12.82;3.55;;;;;;;2.07;86.97;103443.41;5086733;28;20199;-79
2022/01/21 10:30:42;;;;;;;6.73;2.70;;;;;;;2.15;86.87;103441.22;5085400;28;20024;-79
2022/01/21 10:33:37;;;;;;;10.30;2.90;;;;;;;2.25;87.06;103437.44;5086647;28;20020;-79
2022/01/21 10:36:15;;;;;;;7.73;2.30;;;;;;;2.34;86.52;103442.16;5085583;28;20044;-79
2022/01/21 10:38:46;;;;;;;11.30;2.57;;;;;;;2.43;86.61;103446.09;5086399;28;20078;-79
2022/01/21 10:41:17;;;;;;;11.83;3.00;;;;;;;2.57;85.94;103440.75;5084965;28;20022;-79
2022/01/21 10:43:44;;;;;;;11.40;2.47;;;;;;;2.75;86.07;103448.47;5086699;28;20036;-79
2022/01/21 10:46:15;;;;;;;14.50;2.50;;;;;;;2.95;85.33;103448.56;5067830;28;20490;-80
2022/01/21 10:49:02;;;;;;;11.60;1.83;;;;;;;3.18;84.36;103442.84;5086765;28;20119;-79
2022/01/21 10:51:31;;;;;;;13.47;2.03;;;;;;;3.36;83.89;103441.94;5085892;28;20119;-79
2022/01/21 10:54:06;;;;;;;7.47;1.77;;;;;;;3.48;83.19;103434.78;5087274;28;20483;-79
2022/01/21 10:56:31;;;;;;;8.50;2.00;;;;;;;3.59;82.16;103424.06;5087452;28;20046;-80
2022/01/21 10:58:57;;;;;;;15.37;2.10;;;;;;;3.66;82.62;103423.53;5086502;28;20024;-79
2022/01/21 11:01:27;;;;;;;6.37;1.63;;;;;;;3.75;81.80;103425.66;5086370;28;20028;-79
2022/01/21 11:04:04;;;;;;;11.83;2.27;;;;;;;3.86;81.86;103428.69;5085427;28;20110;-80
2022/01/21 11:07:05;;;;;;;10.03;2.10;;;;;;;3.93;82.53;103426.47;5085518;28;20039;-79
2022/01/21 11:09:30;;;;;;;8.93;1.77;;;;;;;4.01;82.08;103413.06;5082514;28;20071;-80
2022/01/21 11:12:15;;;;;;;10.13;2.00;;;;;;;4.07;82.70;103408.16;5083333;28;20048;-80
2022/01/21 11:14:58;;;;;;;12.27;2.10;;;;;;;4.09;81.65;103402.25;5082959;28;20035;-80
2022/01/21 11:17:23;;;;;;;11.80;1.77;;;;;;;4.04;81.19;103398.59;5082929;28;20146;-80
2022/01/21 11:20:15;;;;;;;8.17;2.27;;;;;;;4.06;82.13;103390.94;5085277;28;20122;-80
2022/01/21 11:22:57;;;;;;;;;;;;;;;4.05;82.28;103395.22;5086320;28;20052;-80
2022/01/21 11:25:46;;;;;;;11.73;1.40;;;;;;;4.06;82.11;103391.81;5084719;28;20007;-79
2022/01/21 11:28:13;;;;;;;5.77;1.17;;;;;;;4.15;82.08;103386.19;5084168;28;20020;-79
2022/01/21 11:30:39;;;;;;;10.03;1.60;;;;;;;4.25;81.49;103384.88;5084247;28;20020;-80
2022/01/21 11:33:04;;;;;;;8.10;1.33;;;;;;;4.26;82.26;103384.06;5086145;28;20023;-80
2022/01/21 11:35:30;;;;;;;10.47;1.63;;;;;;;4.22;82.36;103388.19;5086130;28;20058;-82
2022/01/21 11:37:57;;;;;;;9.03;1.90;;;;;;;4.21;82.20;103381.25;5086990;28;20061;-80
2022/01/21 11:40:23;;;;;;;6.28;1.25;;;;;;;4.21;82.87;103385.56;5085639;28;20032;-80
2022/01/21 11:42:51;;;;;;;6.70;1.27;;;;;;;4.24;82.58;103390.84;5087044;28;20028;-80
2022/01/21 11:45:31;;;;;;;17.23;1.90;;;;;;;4.21;82.44;103380.41;5087026;28;20053;-80
2022/01/21 11:48:49;;;;;;;14.43;1.80;;;;;;;4.25;82.87;103377.13;5085890;28;20039;-80
2022/01/21 11:50:50;;;;;;;11.13;1.67;;;;;;;4.30;82.43;103385.06;5085950;28;20043;-80
2022/01/21 11:53:45;;;;;;;14.47;1.77;;;;;;;4.29;82.47;103368.69;5087008;28;20024;-80
2022/01/21 11:56:43;;;;;;;11.17;2.00;;;;;;;4.34;82.79;103374.94;5085218;28;20032;-80
2022/01/21 11:59:32;;;;;;;9.27;1.67;;;;;;;4.40;82.37;103372.63;5085165;28;20027;-79
2022/01/21 12:02:00;;;;;;;11.47;1.70;;;;;;;4.49;82.08;103371.22;5067947;28;20036;-79
2022/01/21 12:04:30;;;;;;;10.40;2.10;;;;;;;4.53;81.55;103363.66;5084914;28;20024;-80
2022/01/21 12:07:00;;;;;;;16.10;2.38;;;;;;;4.57;81.91;103356.94;5086527;28;20110;-80
2022/01/21 12:09:53;;;;;;;10.20;1.90;;;;;;;4.58;82.06;103345.81;5084763;28;20040;-80
2022/01/21 12:12:19;;;;;;;10.43;1.73;;;;;;;4.60;81.45;103344.19;5085197;28;20052;-80